Echo Valley, Pennsylvania
Current Conditions -  °F | °C
As of 9:58 PM on Tuesday 25 Nov 2014 (Local Time) from KMUI Reporting Station
Few Clouds Few Clouds  
Wind Chill:   Ceiling: Unl
Heat Index:   Visibility: 10mi
Dew Point: -2°   Wind: 1mph
Humidity: 74%   Direction: NA
Pressure: 30.14"   Gusts: NA
Location:  40.6079°N, 76.4334°W
Report Text: KMUI 260258Z AUTO VRB01KT 10SM FEW210 03/M02 A3014 RMK AO2 SLP212 T00251018 50015 $
Loading
Personal Weather Stations






























Interactive Weather Map New forecast layout! Learn more

10-Day Weather Forecast

Advertisements
Track Severe Weather on mobile